createdAt,value
2022-07-31T00:01:32.619Z,3.20
2022-07-31T00:03:59.310Z,2.65
2022-07-31T00:06:26.013Z,2.63
2022-07-31T00:08:52.675Z,3.00
2022-07-31T00:11:19.272Z,2.80
2022-07-31T00:13:57.420Z,2.75
2022-07-31T00:16:25.841Z,2.80
2022-07-31T00:18:52.628Z,3.03
2022-07-31T00:21:19.304Z,2.60
2022-07-31T00:23:45.822Z,3.08
2022-07-31T00:26:12.386Z,2.65
2022-07-31T00:28:38.961Z,2.90
2022-07-31T00:31:05.551Z,3.00
2022-07-31T00:33:32.065Z,2.88
2022-07-31T00:35:58.625Z,2.97
2022-07-31T00:38:27.004Z,3.40
2022-07-31T00:40:54.137Z,3.10
2022-07-31T00:43:20.735Z,3.10
2022-07-31T00:45:50.541Z,3.00
2022-07-31T00:48:22.890Z,3.28
2022-07-31T00:50:50.946Z,2.80
2022-07-31T00:53:17.517Z,3.03
2022-07-31T00:55:51.404Z,2.85
2022-07-31T00:58:19.955Z,2.90
2022-07-31T01:00:46.818Z,2.78
2022-07-31T01:03:14.340Z,3.08
2022-07-31T01:05:41.745Z,2.80
2022-07-31T01:08:08.433Z,3.00
2022-07-31T01:10:54.302Z,2.97
2022-07-31T01:13:30.287Z,3.45
2022-07-31T01:16:01.082Z,3.08
2022-07-31T01:18:31.436Z,3.10
2022-07-31T01:21:03.193Z,3.47
2022-07-31T01:23:55.197Z,3.10
2022-07-31T01:26:37.940Z,3.10
2022-07-31T01:29:25.737Z,3.25
2022-07-31T01:32:01.372Z,3.10
2022-07-31T01:34:44.761Z,3.15
2022-07-31T01:37:18.039Z,3.50
2022-07-31T01:39:50.710Z,2.88
2022-07-31T01:42:19.713Z,3.55
2022-07-31T01:44:51.539Z,3.38
2022-07-31T01:47:21.427Z,3.60
2022-07-31T01:49:51.612Z,3.22
2022-07-31T01:52:19.223Z,4.05
2022-07-31T01:54:47.608Z,3.55
2022-07-31T01:57:18.480Z,4.28
2022-07-31T01:59:47.852Z,3.55
2022-07-31T02:02:16.158Z,3.75
2022-07-31T02:04:44.157Z,4.00
2022-07-31T02:07:11.075Z,4.38
2022-07-31T02:09:37.926Z,3.40
2022-07-31T02:12:33.927Z,4.82
2022-07-31T02:15:03.706Z,3.60
2022-07-31T02:17:30.439Z,3.60
2022-07-31T02:20:00.406Z,4.03
2022-07-31T02:22:27.539Z,3.65
2022-07-31T02:24:54.048Z,3.78
2022-07-31T02:27:58.064Z,3.60
2022-07-31T02:30:10.769Z,3.72
2022-07-31T02:32:39.193Z,3.72
2022-07-31T02:35:07.824Z,4.28
2022-07-31T02:37:37.399Z,4.00
2022-07-31T02:40:05.730Z,4.05
2022-07-31T02:42:32.877Z,3.78
2022-07-31T02:45:00.857Z,3.85
2022-07-31T02:47:28.865Z,4.03
2022-07-31T02:49:57.979Z,3.95
2022-07-31T02:52:25.236Z,4.40
2022-07-31T02:54:52.833Z,4.40
2022-07-31T02:57:19.368Z,4.30
2022-07-31T02:59:45.886Z,4.55
2022-07-31T03:02:12.465Z,4.53
2022-07-31T03:04:39.031Z,5.97
2022-07-31T03:07:05.580Z,4.72
2022-07-31T03:09:32.060Z,3.70
2022-07-31T03:11:58.727Z,4.25
2022-07-31T03:14:33.132Z,3.90
2022-07-31T03:17:00.479Z,4.45
2022-07-31T03:19:28.651Z,3.78
2022-07-31T03:21:56.336Z,4.72
2022-07-31T03:24:23.005Z,4.38
2022-07-31T03:26:49.615Z,4.53
2022-07-31T03:29:36.128Z,4.15
2022-07-31T03:32:02.769Z,3.55
2022-07-31T03:34:29.432Z,4.32
2022-07-31T03:36:55.906Z,4.43
2022-07-31T03:39:22.401Z,4.57
2022-07-31T03:41:50.407Z,4.30
2022-07-31T03:44:17.029Z,4.90
2022-07-31T03:46:43.590Z,4.35
2022-07-31T03:49:10.317Z,3.97
2022-07-31T03:51:37.089Z,4.35
2022-07-31T03:54:03.920Z,4.50
2022-07-31T03:56:31.324Z,3.90
2022-07-31T03:58:57.913Z,4.53
2022-07-31T04:01:26.951Z,4.68
2022-07-31T04:04:13.621Z,4.50
2022-07-31T04:06:40.739Z,5.32
2022-07-31T04:09:18.409Z,4.35
2022-07-31T04:11:45.958Z,4.55
2022-07-31T04:14:12.574Z,4.65
2022-07-31T04:16:39.051Z,4.60
2022-07-31T04:19:05.544Z,4.93
2022-07-31T04:21:32.047Z,4.72
2022-07-31T04:23:58.736Z,4.22
2022-07-31T04:26:26.391Z,4.28
2022-07-31T04:28:53.201Z,4.50
2022-07-31T04:31:19.841Z,4.88
2022-07-31T04:33:48.927Z,4.68
2022-07-31T04:36:30.107Z,4.47
2022-07-31T04:38:58.718Z,4.80
2022-07-31T04:41:25.247Z,4.20
2022-07-31T04:43:52.196Z,4.03
2022-07-31T04:46:18.664Z,4.65
2022-07-31T04:48:45.297Z,4.43
2022-07-31T04:51:23.404Z,4.28
2022-07-31T04:53:51.168Z,4.22
2022-07-31T04:56:34.028Z,4.68
2022-07-31T04:59:06.276Z,4.88
2022-07-31T05:01:33.605Z,4.60
2022-07-31T05:04:01.801Z,4.75
2022-07-31T05:06:42.623Z,4.60
2022-07-31T05:09:18.356Z,4.50
2022-07-31T05:11:46.795Z,4.57
2022-07-31T05:14:15.147Z,4.55
2022-07-31T05:16:41.892Z,4.35
2022-07-31T05:19:14.791Z,4.45
2022-07-31T05:21:51.382Z,4.05
2022-07-31T05:24:22.681Z,4.13
2022-07-31T05:27:03.438Z,4.90
2022-07-31T05:29:30.380Z,4.78
2022-07-31T05:32:00.651Z,5.18
2022-07-31T05:34:30.061Z,4.07
2022-07-31T05:36:58.378Z,4.20
2022-07-31T05:39:25.280Z,4.40
2022-07-31T05:41:52.802Z,4.90
2022-07-31T05:44:19.538Z,4.10
2022-07-31T05:46:46.144Z,3.90
2022-07-31T05:49:12.860Z,4.05
2022-07-31T05:51:43.146Z,4.00
2022-07-31T05:54:09.734Z,4.68
2022-07-31T05:56:36.236Z,3.78
2022-07-31T05:59:02.743Z,4.28
2022-07-31T06:01:29.328Z,4.53
2022-07-31T06:03:55.905Z,4.38
2022-07-31T06:06:22.425Z,5.25
2022-07-31T06:08:49.026Z,4.40
2022-07-31T06:11:15.516Z,5.03
2022-07-31T06:13:43.382Z,4.63
2022-07-31T06:16:16.083Z,4.60
2022-07-31T06:18:42.992Z,5.35
2022-07-31T06:23:37.110Z,5.75
2022-07-31T06:26:04.086Z,5.22
2022-07-31T06:28:48.526Z,5.70
2022-07-31T06:31:20.478Z,5.88
2022-07-31T06:33:48.575Z,4.85
2022-07-31T06:36:16.346Z,6.25
2022-07-31T06:38:42.988Z,5.85
2022-07-31T06:41:09.772Z,5.45
2022-07-31T06:43:36.491Z,6.65
2022-07-31T06:46:03.080Z,5.50
2022-07-31T06:48:30.178Z,6.47
2022-07-31T06:51:29.076Z,6.97
2022-07-31T06:53:43.463Z,7.72
2022-07-31T06:56:10.147Z,3.58
2022-07-31T06:58:36.700Z,7.03
2022-07-31T07:01:03.401Z,5.57
2022-07-31T07:03:30.082Z,7.10
2022-07-31T07:05:56.744Z,6.63
2022-07-31T07:08:23.392Z,6.30
2022-07-31T07:10:49.999Z,6.35
2022-07-31T07:13:16.591Z,5.75
2022-07-31T07:15:43.197Z,3.60
2022-07-31T07:18:09.834Z,6.55
2022-07-31T07:20:36.521Z,7.20
2022-07-31T07:23:03.549Z,7.10
2022-07-31T07:25:30.250Z,5.50
2022-07-31T07:27:56.893Z,8.50
2022-07-31T07:30:23.940Z,2.67
2022-07-31T07:32:50.570Z,6.97
2022-07-31T07:35:17.094Z,7.97
2022-07-31T07:37:43.561Z,3.97
2022-07-31T07:40:10.463Z,7.72
2022-07-31T07:42:37.200Z,6.03
2022-07-31T07:45:08.138Z,5.45
2022-07-31T07:48:02.367Z,8.38
2022-07-31T07:50:22.775Z,4.22
2022-07-31T07:52:54.025Z,1.67
2022-07-31T07:55:20.597Z,3.17
2022-07-31T07:57:47.117Z,3.55
2022-07-31T08:00:14.164Z,7.15
2022-07-31T08:02:42.592Z,5.45
2022-07-31T08:05:09.907Z,6.00
2022-07-31T08:07:42.168Z,2.05
2022-07-31T08:10:10.080Z,1.60
2022-07-31T08:12:37.701Z,3.47
2022-07-31T08:15:05.668Z,2.28
2022-07-31T08:17:32.224Z,3.25
2022-07-31T08:19:58.833Z,2.90
2022-07-31T08:22:25.424Z,3.35
2022-07-31T08:24:51.996Z,2.05
2022-07-31T08:27:39.432Z,1.67
2022-07-31T08:30:07.846Z,2.45
2022-07-31T08:32:34.709Z,3.30
2022-07-31T08:35:01.289Z,3.00
2022-07-31T08:37:52.363Z,1.80
2022-07-31T08:40:14.448Z,2.30
2022-07-31T08:42:41.910Z,3.00
2022-07-31T08:45:09.339Z,3.10
2022-07-31T08:47:36.510Z,1.67
2022-07-31T08:50:05.502Z,2.72
2022-07-31T08:52:34.556Z,2.90
2022-07-31T08:55:06.170Z,3.35
2022-07-31T08:57:32.954Z,1.40
2022-07-31T08:59:59.456Z,0.90
2022-07-31T09:02:26.208Z,1.15
2022-07-31T09:04:53.063Z,2.00
2022-07-31T09:07:19.741Z,2.25
2022-07-31T09:09:51.595Z,1.60
2022-07-31T09:12:33.275Z,3.28
2022-07-31T09:15:00.973Z,2.97
2022-07-31T09:17:36.747Z,3.80
2022-07-31T09:20:05.691Z,3.35
2022-07-31T09:22:32.436Z,3.10
2022-07-31T09:25:12.118Z,4.10
2022-07-31T09:27:39.427Z,3.55
2022-07-31T09:30:07.492Z,2.30
2022-07-31T09:32:34.277Z,2.33
2022-07-31T09:35:09.893Z,2.30
2022-07-31T09:37:37.031Z,4.07
2022-07-31T09:40:04.278Z,3.60
2022-07-31T09:42:39.054Z,2.90
2022-07-31T09:45:19.775Z,4.25
2022-07-31T09:47:47.034Z,3.70
2022-07-31T09:50:14.425Z,2.95
2022-07-31T09:52:41.009Z,2.47
2022-07-31T09:55:16.313Z,3.67
2022-07-31T09:58:00.277Z,3.35
2022-07-31T10:00:27.939Z,2.50
2022-07-31T10:02:55.982Z,4.40
2022-07-31T10:05:27.560Z,2.42
2022-07-31T10:07:57.340Z,1.15
2022-07-31T10:10:24.658Z,2.80
2022-07-31T10:12:54.205Z,5.13
2022-07-31T10:15:23.044Z,1.77
2022-07-31T10:17:51.605Z,2.58
2022-07-31T10:20:22.077Z,3.83
2022-07-31T10:22:53.483Z,2.63
2022-07-31T10:25:29.161Z,2.03
2022-07-31T10:27:57.305Z,0.75
2022-07-31T10:30:28.097Z,4.45
2022-07-31T10:32:56.255Z,2.55
2022-07-31T10:35:22.945Z,3.13
2022-07-31T10:38:11.743Z,2.13
2022-07-31T10:41:03.758Z,3.60
2022-07-31T10:43:47.016Z,3.88
2022-07-31T10:46:13.519Z,1.95
2022-07-31T10:48:51.309Z,4.18
2022-07-31T10:51:18.060Z,2.08
2022-07-31T10:54:05.594Z,2.58
2022-07-31T10:56:43.537Z,3.90
2022-07-31T10:59:11.204Z,2.30
2022-07-31T11:01:52.869Z,2.90
2022-07-31T11:04:28.134Z,3.33
2022-07-31T11:06:54.774Z,3.42
2022-07-31T11:09:25.989Z,3.63
2022-07-31T11:11:53.867Z,3.92
2022-07-31T11:14:38.870Z,3.88
2022-07-31T11:17:05.926Z,3.63
2022-07-31T11:19:43.870Z,2.95
2022-07-31T11:22:30.898Z,3.08
2022-07-31T11:25:00.590Z,3.10
2022-07-31T11:27:34.459Z,2.80
2022-07-31T11:30:12.993Z,1.92
2022-07-31T11:32:41.316Z,3.20
2022-07-31T11:35:08.956Z,2.90
2022-07-31T11:37:46.527Z,3.15
2022-07-31T11:40:25.799Z,1.67
2022-07-31T11:43:23.137Z,1.55
2022-07-31T11:45:49.956Z,3.70
2022-07-31T11:50:47.883Z,3.75
2022-07-31T11:53:14.933Z,1.88
2022-07-31T11:55:44.563Z,3.67
2022-07-31T11:58:11.313Z,4.25
2022-07-31T12:00:38.105Z,4.03
2022-07-31T12:03:05.693Z,3.28
2022-07-31T12:05:37.926Z,4.03
2022-07-31T12:08:06.707Z,3.75
2022-07-31T12:10:33.399Z,4.75
2022-07-31T12:13:00.674Z,2.10
2022-07-31T12:15:27.269Z,4.22
2022-07-31T12:18:02.302Z,4.35
2022-07-31T12:20:36.743Z,4.43
2022-07-31T12:23:06.180Z,4.63
2022-07-31T12:25:43.396Z,4.43
2022-07-31T12:28:10.308Z,4.32
2022-07-31T12:30:37.198Z,1.42
2022-07-31T12:33:12.396Z,2.72
2022-07-31T12:35:56.378Z,2.40
2022-07-31T12:38:45.166Z,3.05
2022-07-31T12:41:14.147Z,4.00
2022-07-31T12:43:51.557Z,3.40
2022-07-31T12:46:20.737Z,4.03
2022-07-31T12:48:47.261Z,2.58
2022-07-31T12:51:14.042Z,3.10
2022-07-31T12:53:40.648Z,1.73
2022-07-31T12:56:11.877Z,3.58
2022-07-31T12:58:38.523Z,3.50
2022-07-31T13:01:05.027Z,3.35
2022-07-31T13:03:45.351Z,3.83
2022-07-31T13:06:13.560Z,2.78
2022-07-31T13:08:40.172Z,2.80
2022-07-31T13:11:06.702Z,3.72
2022-07-31T13:13:33.288Z,3.17
2022-07-31T13:15:59.845Z,1.00
2022-07-31T13:18:26.457Z,3.08
2022-07-31T13:20:52.976Z,3.80
2022-07-31T13:23:21.379Z,2.95
2022-07-31T13:25:48.000Z,4.35
2022-07-31T13:28:14.524Z,3.38
2022-07-31T13:30:41.587Z,3.15
2022-07-31T13:33:08.193Z,2.03
2022-07-31T13:35:34.774Z,3.58
2022-07-31T13:38:01.331Z,3.83
2022-07-31T13:40:46.382Z,3.05
2022-07-31T13:43:13.156Z,3.58
2022-07-31T13:45:39.690Z,3.67
2022-07-31T13:48:09.318Z,3.63
2022-07-31T13:50:37.606Z,2.97
2022-07-31T13:53:05.002Z,1.60
2022-07-31T13:55:32.245Z,3.30
2022-07-31T13:57:59.448Z,3.78
2022-07-31T14:00:28.455Z,3.47
2022-07-31T14:02:55.048Z,3.80
2022-07-31T14:05:21.617Z,3.90
2022-07-31T14:07:52.039Z,4.25
2022-07-31T14:10:20.782Z,3.75
2022-07-31T14:12:48.511Z,3.53
2022-07-31T14:15:15.217Z,2.65
2022-07-31T14:17:41.842Z,4.07
2022-07-31T14:20:09.355Z,3.40
2022-07-31T14:22:35.973Z,3.95
2022-07-31T14:25:02.557Z,2.30
2022-07-31T14:27:29.140Z,1.45
2022-07-31T14:29:55.772Z,3.85
2022-07-31T14:32:22.744Z,3.17
2022-07-31T14:34:50.258Z,2.58
2022-07-31T14:37:17.135Z,3.42
2022-07-31T14:39:43.836Z,4.65
2022-07-31T14:42:11.383Z,3.92
2022-07-31T14:44:41.577Z,3.92
2022-07-31T14:47:09.280Z,2.03
2022-07-31T14:50:08.977Z,3.53
2022-07-31T14:52:22.630Z,5.00
2022-07-31T14:54:49.190Z,3.08
2022-07-31T14:57:22.255Z,4.35
2022-07-31T14:59:50.106Z,2.83
2022-07-31T15:02:21.783Z,4.50
2022-07-31T15:04:49.136Z,4.15
2022-07-31T15:10:06.579Z,1.75
2022-07-31T15:12:33.688Z,1.95
2022-07-31T15:15:00.383Z,4.25
2022-07-31T15:17:27.193Z,3.47
2022-07-31T15:19:53.814Z,2.72
2022-07-31T15:22:20.326Z,3.40
2022-07-31T15:24:48.892Z,2.75
2022-07-31T15:27:21.741Z,3.42
2022-07-31T15:30:05.823Z,4.82
2022-07-31T15:35:06.268Z,3.13
2022-07-31T15:37:37.293Z,3.13
2022-07-31T15:40:06.131Z,3.30
2022-07-31T15:42:33.426Z,2.80
2022-07-31T15:45:00.113Z,3.55
2022-07-31T15:47:26.660Z,3.78
2022-07-31T15:49:53.292Z,3.25
2022-07-31T15:52:20.007Z,5.18
2022-07-31T15:54:47.053Z,4.85
2022-07-31T15:57:14.642Z,4.18
2022-07-31T15:59:41.669Z,5.18
2022-07-31T17:13:23.078Z,7.63
2022-07-31T17:15:49.684Z,7.22
2022-07-31T17:18:16.180Z,5.25
2022-07-31T17:20:46.844Z,4.75
2022-07-31T17:23:13.358Z,2.55
2022-07-31T17:25:40.020Z,3.92
2022-07-31T17:28:10.135Z,4.45
2022-07-31T17:30:39.113Z,4.80
2022-07-31T17:33:05.626Z,4.30
2022-07-31T17:35:32.166Z,4.65
2022-07-31T17:37:58.635Z,6.40
2022-07-31T17:40:42.451Z,5.18
2022-07-31T17:43:09.813Z,4.03
2022-07-31T17:45:59.439Z,4.10
2022-07-31T17:48:25.007Z,4.85
2022-07-31T17:50:54.240Z,4.65
2022-07-31T17:53:21.048Z,5.50
2022-07-31T17:55:49.463Z,4.80
2022-07-31T17:58:16.781Z,7.28
2022-07-31T18:00:43.453Z,6.78
2022-07-31T18:03:10.210Z,6.63
2022-07-31T18:05:37.691Z,6.95
2022-07-31T18:08:04.513Z,7.72
2022-07-31T18:10:52.259Z,7.07
2022-07-31T18:13:17.579Z,6.57
2022-07-31T18:15:44.232Z,6.03
2022-07-31T18:18:10.851Z,6.28
2022-07-31T18:20:38.139Z,6.35
2022-07-31T18:23:04.747Z,7.85
2022-07-31T18:25:36.911Z,9.25
2022-07-31T18:28:03.501Z,7.57
2022-07-31T18:30:30.464Z,8.52
2022-07-31T18:33:00.363Z,8.75
2022-07-31T18:35:26.909Z,10.25
2022-07-31T18:37:53.484Z,12.10
2022-07-31T18:40:19.985Z,11.27
2022-07-31T18:42:46.484Z,12.20
2022-07-31T18:45:13.055Z,11.27
2022-07-31T18:47:39.560Z,9.50
2022-07-31T18:51:02.968Z,6.45
2022-07-31T18:52:52.919Z,7.68
2022-07-31T18:55:19.494Z,7.30
2022-07-31T18:57:46.015Z,6.35
2022-07-31T19:00:12.894Z,6.57
2022-07-31T19:02:39.428Z,6.85
2022-07-31T19:05:07.437Z,7.30
2022-07-31T19:07:40.374Z,8.00
2022-07-31T19:10:07.878Z,7.97
2022-07-31T19:12:35.464Z,12.30
2022-07-31T19:15:03.271Z,7.60
2022-07-31T19:17:44.660Z,7.55
2022-07-31T19:20:12.594Z,7.82
2022-07-31T19:22:58.967Z,8.63
2022-07-31T19:25:25.679Z,8.32
2022-07-31T19:27:52.157Z,8.85
2022-07-31T19:30:18.702Z,7.07
2022-07-31T19:32:45.223Z,7.53
2022-07-31T19:35:23.784Z,8.60
2022-07-31T19:38:01.176Z,8.00
2022-07-31T19:40:28.838Z,7.57
2022-07-31T19:42:59.574Z,8.65
2022-07-31T19:45:26.759Z,8.75
2022-07-31T19:47:53.589Z,6.80
2022-07-31T19:50:20.107Z,7.72
2022-07-31T19:52:47.836Z,9.02
2022-07-31T19:55:15.171Z,7.70
2022-07-31T19:57:42.810Z,8.60
2022-07-31T20:00:11.779Z,9.23
2022-07-31T20:02:39.866Z,9.82
2022-07-31T20:05:07.292Z,8.38
2022-07-31T20:07:34.067Z,8.60
2022-07-31T20:10:01.815Z,9.07
2022-07-31T20:12:28.350Z,9.30
2022-07-31T20:14:54.842Z,9.68
2022-07-31T20:17:21.341Z,8.10
2022-07-31T20:20:02.998Z,8.40
2022-07-31T20:22:34.368Z,7.90
2022-07-31T20:25:00.946Z,8.20
2022-07-31T20:27:38.437Z,9.27
2022-07-31T20:30:08.975Z,8.57
2022-07-31T20:32:38.115Z,8.88
2022-07-31T20:35:32.816Z,8.55
2022-07-31T20:38:02.285Z,8.13
2022-07-31T20:40:28.899Z,8.75
2022-07-31T20:42:55.490Z,9.40
2022-07-31T20:45:23.292Z,9.02
2022-07-31T20:47:52.008Z,8.88
2022-07-31T20:50:19.267Z,8.43
2022-07-31T20:52:48.512Z,10.85
2022-07-31T20:55:15.260Z,8.35
2022-07-31T20:57:42.385Z,8.73
2022-07-31T21:00:09.656Z,9.70
2022-07-31T21:02:36.167Z,9.52
2022-07-31T21:05:05.724Z,8.85
2022-07-31T21:07:32.201Z,7.47
2022-07-31T21:09:58.678Z,8.27
2022-07-31T21:12:29.518Z,6.25
2022-07-31T21:14:56.253Z,8.48
2022-07-31T21:17:22.721Z,11.25
2022-07-31T21:19:49.201Z,8.65
2022-07-31T21:22:15.678Z,4.45
2022-07-31T21:24:42.514Z,10.38
2022-07-31T21:27:12.231Z,8.98
2022-07-31T21:29:38.982Z,9.82
2022-07-31T21:32:06.473Z,11.15
2022-07-31T21:34:33.629Z,5.95
2022-07-31T21:37:01.335Z,10.57
2022-07-31T21:39:28.895Z,11.38
2022-07-31T21:41:55.723Z,11.07
2022-07-31T21:44:22.341Z,12.27
2022-07-31T21:46:53.862Z,9.85
2022-07-31T21:49:22.589Z,11.25
2022-07-31T21:51:49.443Z,10.02
2022-07-31T21:54:17.858Z,11.23
2022-07-31T21:56:44.468Z,11.48
2022-07-31T21:59:12.831Z,12.30
2022-07-31T22:01:39.439Z,10.60
2022-07-31T22:04:34.361Z,11.50
2022-07-31T22:07:20.082Z,11.77
2022-07-31T22:09:46.544Z,12.45
2022-07-31T22:12:13.127Z,12.90
2022-07-31T22:14:39.576Z,12.70
2022-07-31T22:17:09.708Z,11.15
2022-07-31T22:19:44.315Z,13.20
2022-07-31T22:22:14.361Z,11.50
2022-07-31T22:24:41.189Z,13.00
2022-07-31T22:27:26.467Z,11.88
2022-07-31T22:29:53.364Z,12.20
2022-07-31T22:32:19.838Z,13.45
2022-07-31T22:34:46.473Z,11.35
2022-07-31T22:37:13.431Z,12.45
2022-07-31T22:39:40.154Z,12.80
2022-07-31T22:42:07.207Z,11.98
2022-07-31T22:44:36.992Z,10.70
2022-07-31T22:47:03.773Z,11.95
2022-07-31T22:49:30.485Z,13.63
2022-07-31T22:51:57.138Z,12.75
2022-07-31T22:54:23.714Z,7.75
2022-07-31T22:56:50.253Z,11.85
2022-07-31T22:59:16.851Z,8.25
2022-07-31T23:01:43.346Z,12.07
2022-07-31T23:04:09.833Z,10.88
2022-07-31T23:06:36.367Z,11.88
2022-07-31T23:09:03.253Z,12.32
2022-07-31T23:11:30.071Z,14.30
2022-07-31T23:13:56.636Z,13.25
2022-07-31T23:16:23.152Z,14.75
2022-07-31T23:18:51.384Z,15.13
2022-07-31T23:21:18.863Z,13.98
2022-07-31T23:23:48.068Z,15.90
2022-07-31T23:26:16.511Z,14.73
2022-07-31T23:28:43.025Z,16.35
2022-07-31T23:31:09.571Z,15.50
2022-07-31T23:33:36.116Z,16.08
2022-07-31T23:36:02.829Z,17.48
2022-07-31T23:38:29.389Z,9.45
2022-07-31T23:40:56.438Z,17.30
2022-07-31T23:43:23.905Z,19.25
2022-07-31T23:45:50.949Z,15.95
2022-07-31T23:48:23.158Z,19.33
2022-07-31T23:50:55.946Z,17.52
2022-07-31T23:53:22.436Z,15.52
2022-07-31T23:55:48.987Z,20.27
2022-07-31T23:58:15.548Z,20.73
